createdAt,value
2018-12-23T00:00:53.316Z,43.73
2018-12-23T00:03:22.264Z,44.00
2018-12-23T00:05:51.228Z,45.43
2018-12-23T00:08:20.237Z,42.30
2018-12-23T00:10:49.193Z,57.67
2018-12-23T00:13:18.131Z,40.80
2018-12-23T00:15:47.132Z,43.10
2018-12-23T00:18:16.048Z,55.73
2018-12-23T00:20:44.992Z,53.57
2018-12-23T00:23:13.989Z,49.50
2018-12-23T00:25:42.896Z,50.07
2018-12-23T00:28:11.833Z,45.37
2018-12-23T00:30:40.832Z,48.97
2018-12-23T00:33:09.847Z,45.97
2018-12-23T00:35:38.879Z,52.43
2018-12-23T00:38:07.849Z,46.43
2018-12-23T00:40:36.740Z,40.03
2018-12-23T00:43:05.633Z,44.03
2018-12-23T00:45:34.784Z,31.93
2018-12-23T00:48:03.688Z,33.28
2018-12-23T00:50:33.431Z,41.63
2018-12-23T00:53:02.464Z,32.63
2018-12-23T00:55:31.360Z,39.00
2018-12-23T00:58:00.272Z,30.40
2018-12-23T01:00:29.291Z,29.07
2018-12-23T01:02:58.182Z,33.10
2018-12-23T01:05:28.907Z,36.17
2018-12-23T01:07:58.100Z,36.30
2018-12-23T01:10:27.008Z,36.63
2018-12-23T01:12:55.984Z,32.60
2018-12-23T01:15:25.121Z,29.57
2018-12-23T01:17:54.035Z,30.40
2018-12-23T01:20:23.336Z,23.87
2018-12-23T01:22:52.306Z,33.67
2018-12-23T01:25:21.209Z,29.70
2018-12-23T01:27:50.113Z,36.57
2018-12-23T01:30:19.077Z,33.07
2018-12-23T01:32:47.986Z,31.53
2018-12-23T01:35:16.892Z,39.77
2018-12-23T01:37:45.948Z,33.43
2018-12-23T01:40:15.445Z,32.40
2018-12-23T01:42:44.336Z,31.43
2018-12-23T01:45:13.319Z,33.13
2018-12-23T01:47:42.204Z,36.37
2018-12-23T01:50:11.129Z,43.00
2018-12-23T01:52:40.104Z,42.33
2018-12-23T01:55:09.096Z,39.50
2018-12-23T01:57:37.984Z,35.83
2018-12-23T02:00:08.146Z,30.20
2018-12-23T02:02:37.040Z,31.90
2018-12-23T02:05:05.998Z,35.10
2018-12-23T02:07:35.076Z,40.07
2018-12-23T02:10:04.164Z,39.70
2018-12-23T02:12:33.235Z,31.33
2018-12-23T02:15:02.247Z,34.17
2018-12-23T02:17:31.247Z,37.67
2018-12-23T02:20:00.952Z,34.23
2018-12-23T02:22:29.912Z,32.17
2018-12-23T02:24:58.873Z,35.40
2018-12-23T02:27:27.983Z,39.57
2018-12-23T02:29:56.943Z,41.67
2018-12-23T02:32:25.825Z,31.97
2018-12-23T02:35:00.961Z,32.93
2018-12-23T02:37:29.866Z,45.73
2018-12-23T02:39:59.049Z,39.63
2018-12-23T02:42:28.021Z,36.30
2018-12-23T02:44:56.941Z,33.17
2018-12-23T02:47:25.854Z,36.93
2018-12-23T02:49:54.928Z,33.50
2018-12-23T02:52:23.904Z,37.50
2018-12-23T02:54:52.811Z,39.20
2018-12-23T02:57:21.857Z,34.87
2018-12-23T02:59:50.783Z,37.10
2018-12-23T03:02:19.682Z,32.60
2018-12-23T03:04:48.661Z,34.93
2018-12-23T03:07:17.652Z,40.33
2018-12-23T03:09:46.673Z,34.37
2018-12-23T03:12:16.253Z,35.97
2018-12-23T03:14:45.169Z,39.23
2018-12-23T03:17:14.068Z,36.90
2018-12-23T03:19:43.843Z,32.77
2018-12-23T03:22:12.751Z,34.97
2018-12-23T03:24:41.653Z,36.77
2018-12-23T03:27:10.653Z,37.23
2018-12-23T03:29:39.561Z,31.97
2018-12-23T03:32:08.494Z,48.40
2018-12-23T03:34:37.507Z,42.63
2018-12-23T03:37:06.405Z,36.60
2018-12-23T03:39:35.351Z,37.47
2018-12-23T03:42:04.365Z,39.33
2018-12-23T03:44:33.271Z,38.47
2018-12-23T03:47:02.172Z,45.47
2018-12-23T03:49:31.137Z,44.37
2018-12-23T03:52:00.070Z,43.70
2018-12-23T03:54:29.285Z,47.00
2018-12-23T03:56:59.381Z,41.40
2018-12-23T03:59:28.348Z,38.70
2018-12-23T04:01:57.452Z,43.93
2018-12-23T04:04:26.438Z,42.20
2018-12-23T04:06:55.348Z,36.90
2018-12-23T04:09:24.247Z,54.47
2018-12-23T04:11:53.296Z,44.10
2018-12-23T04:14:22.210Z,47.23
2018-12-23T04:16:51.129Z,38.70
2018-12-23T04:19:20.097Z,42.20
2018-12-23T04:21:49.008Z,38.70
2018-12-23T04:24:18.309Z,58.97
2018-12-23T04:26:47.531Z,55.27
2018-12-23T04:29:16.549Z,55.50
2018-12-23T04:31:45.485Z,50.23
2018-12-23T04:34:14.461Z,47.27
2018-12-23T04:36:43.372Z,48.00
2018-12-23T04:39:12.350Z,53.73
2018-12-23T04:41:41.446Z,55.70
2018-12-23T04:44:10.633Z,48.70
2018-12-23T04:46:39.524Z,52.77
2018-12-23T04:49:08.499Z,43.43
2018-12-23T04:51:37.388Z,49.93
2018-12-23T04:54:06.288Z,43.50
2018-12-23T04:56:35.340Z,51.25
2018-12-23T04:59:04.262Z,37.28
2018-12-23T05:01:33.263Z,41.45
2018-12-23T05:04:02.298Z,47.50
2018-12-23T05:06:31.204Z,28.98
2018-12-23T05:09:00.104Z,34.67
2018-12-23T05:11:29.078Z,50.88
2018-12-23T05:13:57.989Z,47.65
2018-12-23T05:16:26.883Z,47.70
2018-12-23T05:18:55.889Z,39.73
2018-12-23T05:21:24.801Z,50.50
2018-12-23T05:23:53.760Z,40.80
2018-12-23T05:26:22.716Z,33.73
2018-12-23T05:28:52.408Z,22.65
2018-12-23T05:31:22.344Z,24.57
2018-12-23T05:33:51.348Z,31.77
2018-12-23T05:36:20.274Z,29.77
2018-12-23T05:38:49.204Z,33.10
2018-12-23T05:41:18.993Z,24.98
2018-12-23T05:43:47.896Z,30.70
2018-12-23T05:46:16.853Z,28.27
2018-12-23T05:48:45.836Z,31.77
2018-12-23T05:51:14.813Z,25.57
2018-12-23T05:53:43.860Z,28.23
2018-12-23T05:56:12.820Z,24.98
2018-12-23T05:58:41.708Z,25.92
2018-12-23T06:01:10.700Z,26.37
2018-12-23T06:03:39.727Z,26.77
2018-12-23T06:06:08.641Z,21.87
2018-12-23T06:08:37.563Z,23.98
2018-12-23T06:11:06.753Z,26.93
2018-12-23T06:13:35.804Z,23.80
2018-12-23T06:16:04.797Z,22.90
2018-12-23T06:18:33.841Z,18.45
2018-12-23T06:21:02.744Z,23.83
2018-12-23T06:23:31.644Z,25.45
2018-12-23T06:26:00.635Z,19.30
2018-12-23T06:28:29.533Z,19.67
2018-12-23T06:30:58.476Z,12.05
2018-12-23T06:33:28.569Z,13.20
2018-12-23T06:35:57.516Z,10.35
2018-12-23T06:38:26.415Z,13.68
2018-12-23T06:40:55.499Z,15.08
2018-12-23T06:43:25.030Z,22.95
2018-12-23T06:45:53.976Z,13.95
2018-12-23T06:48:22.976Z,13.40
2018-12-23T06:50:51.884Z,11.18
2018-12-23T06:53:20.813Z,9.13
2018-12-23T06:55:49.890Z,10.90
2018-12-23T06:58:18.776Z,11.80
2018-12-23T07:00:47.739Z,10.43
2018-12-23T07:03:16.772Z,18.82
2018-12-23T07:05:45.829Z,9.10
2018-12-23T07:08:14.915Z,11.35
2018-12-23T07:10:44.028Z,8.43
2018-12-23T07:13:12.935Z,11.93
2018-12-23T07:15:41.834Z,8.58
2018-12-23T07:18:10.848Z,6.78
2018-12-23T07:20:39.774Z,10.38
2018-12-23T07:23:08.676Z,8.55
2018-12-23T07:25:37.704Z,2.70
2018-12-23T07:28:06.621Z,4.45
2018-12-23T07:30:35.537Z,15.00
2018-12-23T07:33:04.504Z,6.75
2018-12-23T07:35:33.407Z,13.62
2018-12-23T07:38:02.312Z,13.53
2018-12-23T07:40:31.308Z,17.27
2018-12-23T07:43:00.288Z,16.15
2018-12-23T07:45:29.199Z,16.60
2018-12-23T07:47:58.204Z,16.77
2018-12-23T07:50:27.128Z,20.23
2018-12-23T07:52:56.054Z,14.20
2018-12-23T07:55:25.046Z,15.53
2018-12-23T07:57:54.055Z,16.45
2018-12-23T08:00:23.114Z,14.63
2018-12-23T08:02:52.184Z,17.17
2018-12-23T08:05:21.159Z,15.20
2018-12-23T08:07:50.660Z,13.43
2018-12-23T08:10:19.755Z,11.28
2018-12-23T08:12:48.696Z,17.00
2018-12-23T08:15:17.653Z,13.32
2018-12-23T08:17:46.750Z,11.83
2018-12-23T08:20:15.708Z,17.52
2018-12-23T08:22:44.659Z,13.75
2018-12-23T08:25:13.915Z,11.68
2018-12-23T08:27:42.840Z,10.28
2018-12-23T08:30:11.874Z,18.10
2018-12-23T08:32:40.881Z,14.98
2018-12-23T08:35:09.813Z,19.25
2018-12-23T08:37:44.536Z,13.03
2018-12-23T08:40:09.903Z,16.77
2018-12-23T08:42:38.838Z,30.17
2018-12-23T08:45:07.789Z,18.05
2018-12-23T08:47:36.756Z,15.05
2018-12-23T08:50:06.237Z,16.67
2018-12-23T08:52:35.170Z,17.12
2018-12-23T08:55:04.332Z,23.92
2018-12-23T08:57:35.339Z,22.98
2018-12-23T09:00:04.601Z,25.30
2018-12-23T09:02:33.509Z,21.45
2018-12-23T09:05:02.424Z,15.63
2018-12-23T09:07:31.444Z,20.97
2018-12-23T09:10:00.446Z,17.17
2018-12-23T09:12:29.373Z,20.85
2018-12-23T09:14:58.356Z,25.57
2018-12-23T09:17:27.261Z,27.35
2018-12-23T09:19:56.192Z,23.73
2018-12-23T09:22:25.205Z,20.12
2018-12-23T09:24:54.114Z,24.63
2018-12-23T09:27:23.069Z,29.23
2018-12-23T09:29:52.060Z,25.97
2018-12-23T09:32:21.009Z,31.57
2018-12-23T09:34:49.901Z,30.50
2018-12-23T09:37:18.937Z,23.47
2018-12-23T09:39:47.850Z,27.27
2018-12-23T09:42:16.799Z,21.00
2018-12-23T09:44:45.894Z,16.87
2018-12-23T09:47:14.840Z,18.32
2018-12-23T09:49:44.860Z,24.65
2018-12-23T09:52:14.212Z,18.30
2018-12-23T09:54:43.205Z,14.85
2018-12-23T09:57:12.186Z,21.75
2018-12-23T09:59:42.150Z,16.80
2018-12-23T10:02:11.102Z,22.80
2018-12-23T10:04:40.070Z,18.25
2018-12-23T10:07:09.120Z,14.43
2018-12-23T10:09:38.025Z,26.25
2018-12-23T10:12:07.180Z,24.02
2018-12-23T10:14:36.280Z,14.28
2018-12-23T10:17:05.303Z,15.72
2018-12-23T10:19:34.206Z,21.37
2018-12-23T10:22:03.221Z,14.50
2018-12-23T10:24:32.263Z,12.90
2018-12-23T10:27:01.249Z,15.05
2018-12-23T10:29:30.247Z,23.62
2018-12-23T10:31:59.168Z,20.35
2018-12-23T10:34:28.079Z,28.17
2018-12-23T10:36:57.060Z,15.50
2018-12-23T10:39:26.297Z,17.80
2018-12-23T10:41:55.286Z,29.15
2018-12-23T10:44:24.297Z,9.40
2018-12-23T10:46:53.270Z,13.00
2018-12-23T10:49:22.200Z,20.80
2018-12-23T10:51:51.176Z,19.65
2018-12-23T10:54:20.148Z,15.78
2018-12-23T10:56:49.067Z,21.95
2018-12-23T10:59:18.026Z,19.45
2018-12-23T11:01:46.936Z,11.97
2018-12-23T11:04:28.445Z,10.45
2018-12-23T11:06:58.248Z,11.53
2018-12-23T11:09:27.154Z,6.97
2018-12-23T11:11:57.872Z,7.45
2018-12-23T11:14:26.955Z,5.83
2018-12-23T11:16:55.901Z,17.30
2018-12-23T11:19:25.072Z,10.30
2018-12-23T11:21:53.989Z,11.30
2018-12-23T11:24:22.950Z,8.50
2018-12-23T11:26:53.832Z,11.45
2018-12-23T11:29:22.980Z,12.37
2018-12-23T11:31:52.041Z,7.67
2018-12-23T11:34:21.585Z,7.85
2018-12-23T11:36:50.637Z,8.15
2018-12-23T11:39:20.863Z,11.85
2018-12-23T11:41:49.812Z,10.03
2018-12-23T11:44:18.740Z,4.92
2018-12-23T11:46:47.767Z,8.63
2018-12-23T11:49:16.778Z,19.05
2018-12-23T11:51:45.791Z,8.50
2018-12-23T11:54:14.884Z,8.80
2018-12-23T11:56:43.890Z,12.70
2018-12-23T11:59:12.844Z,13.98
2018-12-23T12:01:41.866Z,16.32
2018-12-23T12:04:10.790Z,10.45
2018-12-23T12:06:39.743Z,6.12
2018-12-23T12:09:08.789Z,13.28
2018-12-23T12:11:37.753Z,9.13
2018-12-23T12:14:06.713Z,11.93
2018-12-23T12:16:35.814Z,9.53
2018-12-23T12:19:04.817Z,16.55
2018-12-23T12:21:33.712Z,13.80
2018-12-23T12:24:02.693Z,16.45
2018-12-23T12:26:31.629Z,15.85
2018-12-23T12:29:01.555Z,9.08
2018-12-23T12:31:30.562Z,17.87
2018-12-23T12:33:59.485Z,12.40
2018-12-23T12:36:28.400Z,24.92
2018-12-23T12:38:57.369Z,31.40
2018-12-23T12:41:26.312Z,7.83
2018-12-23T12:43:55.266Z,9.15
2018-12-23T12:46:25.824Z,20.95
2018-12-23T12:48:54.738Z,16.48
2018-12-23T12:51:23.710Z,9.95
2018-12-23T12:53:52.733Z,9.15
2018-12-23T12:56:22.540Z,9.30
2018-12-23T12:58:51.464Z,10.85
2018-12-23T13:01:34.440Z,8.55
2018-12-23T13:04:03.358Z,12.58
2018-12-23T13:06:32.349Z,29.82
2018-12-23T13:09:02.128Z,10.78
2018-12-23T13:11:31.061Z,9.65
2018-12-23T13:13:59.983Z,17.62
2018-12-23T13:16:35.235Z,19.77
2018-12-23T13:19:04.238Z,14.78
2018-12-23T13:21:33.177Z,9.98
2018-12-23T13:24:02.164Z,7.37
2018-12-23T13:26:31.277Z,9.73
2018-12-23T13:29:00.243Z,13.53
2018-12-23T13:31:29.240Z,16.45
2018-12-23T13:33:58.178Z,15.60
2018-12-23T13:36:27.148Z,15.72
2018-12-23T13:38:56.157Z,10.30
2018-12-23T13:41:37.391Z,21.12
2018-12-23T13:44:16.568Z,12.07
2018-12-23T13:47:53.264Z,23.60
2018-12-23T13:50:28.615Z,24.02
2018-12-23T13:53:07.409Z,30.48
2018-12-23T13:57:44.648Z,21.48
2018-12-23T14:00:19.941Z,15.88
2018-12-23T14:03:02.589Z,14.87
2018-12-23T14:05:50.702Z,20.12
2018-12-23T14:10:28.137Z,25.52
2018-12-23T14:12:57.064Z,17.25
2018-12-23T14:15:26.048Z,16.00
2018-12-23T14:17:55.093Z,28.05
2018-12-23T14:20:24.110Z,30.17
2018-12-23T14:22:53.105Z,21.68
2018-12-23T14:25:22.239Z,28.62
2018-12-23T14:27:51.185Z,19.70
2018-12-23T14:30:20.108Z,21.33
2018-12-23T14:32:49.084Z,26.57
2018-12-23T14:35:18.026Z,47.62
2018-12-23T14:37:47.032Z,34.18
2018-12-23T14:40:16.044Z,40.60
2018-12-23T14:42:45.808Z,36.98
2018-12-23T14:45:14.798Z,40.05
2018-12-23T14:47:43.877Z,49.93
2018-12-23T14:50:12.774Z,51.45
2018-12-23T14:52:41.724Z,40.70
2018-12-23T14:55:10.687Z,61.60
2018-12-23T14:57:39.621Z,45.63
2018-12-23T15:00:09.388Z,49.93
2018-12-23T15:02:38.408Z,47.60
2018-12-23T15:05:07.789Z,54.30
2018-12-23T15:07:36.725Z,43.75
2018-12-23T15:10:05.856Z,48.15
2018-12-23T15:12:34.897Z,43.70
2018-12-23T15:15:03.900Z,45.55
2018-12-23T15:17:32.876Z,55.10
2018-12-23T15:20:01.793Z,51.08
2018-12-23T15:22:30.805Z,54.38
2018-12-23T15:24:59.804Z,105.27
2018-12-23T15:27:28.738Z,75.32
2018-12-23T15:29:57.833Z,64.80
2018-12-23T15:32:26.852Z,64.77
2018-12-23T15:34:55.805Z,46.10
2018-12-23T15:37:24.771Z,59.55
2018-12-23T15:39:53.787Z,44.77
2018-12-23T15:42:22.696Z,53.92
2018-12-23T15:44:51.700Z,53.90
2018-12-23T15:47:20.680Z,71.35
2018-12-23T15:49:49.637Z,58.92
2018-12-23T15:52:18.592Z,71.87
2018-12-23T15:54:47.646Z,81.00
2018-12-23T15:57:16.572Z,88.60
2018-12-23T15:59:45.492Z,66.02
2018-12-23T16:02:14.546Z,97.22
2018-12-23T16:04:43.465Z,97.92
2018-12-23T16:07:12.393Z,83.87
2018-12-23T16:09:41.400Z,83.03
2018-12-23T16:12:10.387Z,124.40
2018-12-23T16:14:40.235Z,80.40
2018-12-23T16:17:09.244Z,92.25
2018-12-23T16:19:38.269Z,59.60
2018-12-23T16:22:07.240Z,71.10
2018-12-23T16:24:36.428Z,61.02
2018-12-23T16:27:05.320Z,68.60
2018-12-23T16:29:34.268Z,89.67
2018-12-23T16:32:03.282Z,64.37
2018-12-23T16:34:32.205Z,55.73
2018-12-23T16:37:01.130Z,60.73
2018-12-23T16:39:30.106Z,51.80
2018-12-23T16:41:59.024Z,51.02
2018-12-23T16:44:27.948Z,37.33
2018-12-23T16:46:56.925Z,65.92
2018-12-23T16:49:25.837Z,54.98
2018-12-23T16:51:54.732Z,50.92
2018-12-23T16:54:23.706Z,43.80
2018-12-23T16:56:52.618Z,40.70
2018-12-23T16:59:21.573Z,34.30
2018-12-23T17:01:50.579Z,44.20
2018-12-23T17:04:20.488Z,51.60
2018-12-23T17:06:49.441Z,47.62
2018-12-23T17:09:19.152Z,41.23
2018-12-23T17:11:48.068Z,43.17
2018-12-23T17:14:17.586Z,40.67
2018-12-23T17:16:46.560Z,40.90
2018-12-23T17:19:15.516Z,51.60
2018-12-23T17:21:44.412Z,49.20
2018-12-23T17:24:13.399Z,45.43
2018-12-23T17:26:42.365Z,34.45
2018-12-23T17:29:11.316Z,37.58
2018-12-23T17:31:40.310Z,34.10
2018-12-23T17:34:09.256Z,42.05
2018-12-23T17:36:39.298Z,40.55
2018-12-23T17:39:08.315Z,39.50
2018-12-23T17:41:37.233Z,63.95
2018-12-23T17:44:06.136Z,63.30
2018-12-23T17:46:35.113Z,49.38
2018-12-23T17:49:04.032Z,59.13
2018-12-23T17:51:32.950Z,60.85
2018-12-23T17:54:02.181Z,66.97
2018-12-23T17:56:31.093Z,68.40
2018-12-23T17:59:00.245Z,67.65
2018-12-23T18:01:29.225Z,71.65
2018-12-23T18:04:02.282Z,81.35
2018-12-23T18:06:29.152Z,54.23
2018-12-23T18:08:58.085Z,100.50
2018-12-23T18:11:26.985Z,114.08
2018-12-23T18:13:55.971Z,95.20
2018-12-23T18:16:24.936Z,114.97
2018-12-23T18:18:53.951Z,99.87
2018-12-23T18:21:22.911Z,104.73
2018-12-23T18:23:51.829Z,90.67
2018-12-23T18:26:20.749Z,110.08
2018-12-23T18:28:49.787Z,97.60
2018-12-23T18:31:18.701Z,104.35
2018-12-23T18:33:47.612Z,95.00
2018-12-23T18:36:16.589Z,112.63
2018-12-23T18:38:45.485Z,105.43
2018-12-23T18:41:14.437Z,101.62
2018-12-23T18:43:43.416Z,127.17
2018-12-23T18:46:12.312Z,113.22
2018-12-23T18:48:41.225Z,129.90
2018-12-23T18:51:10.199Z,119.37
2018-12-23T18:53:39.110Z,117.27
2018-12-23T18:56:08.121Z,103.23
2018-12-23T18:58:37.109Z,117.33
2018-12-23T19:01:06.425Z,108.10
2018-12-23T19:03:36.527Z,109.73
2018-12-23T19:06:06.473Z,89.52
2018-12-23T19:10:44.745Z,95.50
2018-12-23T19:13:33.973Z,106.20
2018-12-23T19:16:09.879Z,119.30
2018-12-23T19:20:47.476Z,122.00
2018-12-23T19:23:22.422Z,116.83
2018-12-23T19:26:03.437Z,121.20
2018-12-23T19:29:13.536Z,128.57
2018-12-23T19:31:51.476Z,141.30
2018-12-23T19:34:34.004Z,135.50
2018-12-23T19:37:11.685Z,116.03
2018-12-23T19:41:50.824Z,125.53
2018-12-23T19:44:35.913Z,117.90
2018-12-23T19:49:11.060Z,120.47
2018-12-23T19:51:46.284Z,129.80
2018-12-23T19:54:27.521Z,127.77
2018-12-23T19:57:05.049Z,123.63
2018-12-23T19:59:42.409Z,108.10
2018-12-23T20:04:18.225Z,108.13
2018-12-23T20:07:04.217Z,116.67
2018-12-23T20:09:37.517Z,120.60
2018-12-23T20:12:11.784Z,132.03
2018-12-23T20:14:47.695Z,128.43
2018-12-23T20:17:37.992Z,134.20
2018-12-23T20:20:16.005Z,109.27
2018-12-23T20:24:54.229Z,110.13
2018-12-23T20:27:32.099Z,100.37
2018-12-23T20:30:09.653Z,101.63
2018-12-23T20:33:46.244Z,90.70
2018-12-23T20:36:22.886Z,103.23
2018-12-23T20:39:00.972Z,96.47
2018-12-23T20:41:50.889Z,97.60
2018-12-23T20:44:25.216Z,107.57
2018-12-23T20:47:01.745Z,116.47
2018-12-23T20:49:40.252Z,118.03
2018-12-23T20:52:18.984Z,107.13
2018-12-23T20:55:03.021Z,114.00
2018-12-23T20:59:40.244Z,115.77
2018-12-23T21:02:21.293Z,130.40
2018-12-23T21:04:54.521Z,109.43
2018-12-23T21:07:28.772Z,131.20
2018-12-23T21:10:04.858Z,116.80
2018-12-23T21:12:45.060Z,105.77
2018-12-23T21:15:54.944Z,124.63
2018-12-23T21:19:33.825Z,104.47
2018-12-23T21:22:12.935Z,116.13
2018-12-23T21:26:51.185Z,127.57
2018-12-23T21:29:31.245Z,112.53
2018-12-23T21:32:06.465Z,110.17
2018-12-23T21:35:11.721Z,112.43
2018-12-23T21:37:46.808Z,79.13
2018-12-23T21:40:28.753Z,98.93
2018-12-23T21:43:04.781Z,91.00
2018-12-23T21:45:45.569Z,84.67
2018-12-23T21:48:38.817Z,85.90
2018-12-23T21:53:19.060Z,91.00
2018-12-23T21:55:56.572Z,102.23
2018-12-23T21:58:35.564Z,95.67
2018-12-23T22:01:09.768Z,103.20
2018-12-23T22:03:46.844Z,93.23
2018-12-23T22:06:55.975Z,103.17
2018-12-23T22:09:50.068Z,105.73
2018-12-23T22:12:30.884Z,95.37
2018-12-23T22:14:59.772Z,97.83
2018-12-23T22:17:28.680Z,98.87
2018-12-23T22:19:57.636Z,80.73
2018-12-23T22:22:26.540Z,95.93
2018-12-23T22:24:55.441Z,78.17
2018-12-23T22:27:24.418Z,89.60
2018-12-23T22:29:53.365Z,69.30
2018-12-23T22:32:22.268Z,76.17
2018-12-23T22:34:51.287Z,71.37
2018-12-23T22:37:20.210Z,79.33
2018-12-23T22:39:49.149Z,91.20
2018-12-23T22:42:19.057Z,72.97
2018-12-23T22:44:47.957Z,64.37
2018-12-23T22:47:16.840Z,63.37
2018-12-23T22:49:46.816Z,61.13
2018-12-23T22:52:15.717Z,65.83
2018-12-23T22:54:44.696Z,70.23
2018-12-23T22:57:14.601Z,56.70
2018-12-23T22:59:44.562Z,59.30
2018-12-23T23:02:13.493Z,66.43
2018-12-23T23:04:42.540Z,71.10
2018-12-23T23:07:11.467Z,65.40
2018-12-23T23:09:40.385Z,62.90
2018-12-23T23:12:09.377Z,62.50
2018-12-23T23:14:38.304Z,52.40
2018-12-23T23:17:07.199Z,54.83
2018-12-23T23:19:36.276Z,54.77
2018-12-23T23:22:05.251Z,59.97
2018-12-23T23:24:34.175Z,66.30
2018-12-23T23:27:03.493Z,58.67
2018-12-23T23:29:32.714Z,63.77
2018-12-23T23:32:01.628Z,49.87
2018-12-23T23:34:30.664Z,54.90
2018-12-23T23:36:59.621Z,48.53
2018-12-23T23:39:28.520Z,55.70
2018-12-23T23:41:58.413Z,59.73
2018-12-23T23:44:27.741Z,51.00
2018-12-23T23:46:56.670Z,48.70
2018-12-23T23:49:25.631Z,52.07
2018-12-23T23:51:54.520Z,54.93
2018-12-23T23:54:23.579Z,54.77
2018-12-23T23:56:58.722Z,56.70
2018-12-23T23:59:28.641Z,57.13
